Terminal Aerodrome Forecast
Issued by NWS

Home | Current Version | Previous Version | Text Only | Print | Product List | Glossary On
Versions: 1 2 3 4 5 6 7 8 9 10 11 12 13 14 15 16 17 18 19 20 21
000
FTUS43 KAPX 221750 AAC
TAFMBL
TAF AMD
KMBL 221750Z 2218/2318 00000KT 4SM BR BKN002
     FM230400 VRB03KT 1/2SM -DZ FG OVC003
     FM230800 35004KT 1/4SM -DZ FG OVC003
     FM231300 01006KT 3/4SM BR OVC003
     FM231700 01004KT 3SM BR OVC008=

USA.gov is the U.S. government's official web portal to all federal, state and local government web resources and services.